Time;durP1;ratioP1;P1;durP2;ratioP2;P2;SDS_P1;SDS_P2;PMS_P1;PMS_P2;Temp;Humidity;BMP_temperature;BMP_pressure;BME280_temperature;BME280_humidity;BME280_pressure;Samples;Min_cycle;Max_cycle;Signal;HPM_P1;HPM_P2
2022/08/25 00:00:04;;;;;;;;;;;;;;;22.47;63.47;101579.19;5027298;28;19916;-57
2022/08/25 00:02:29;;;;;;;;;;;;;;;22.49;63.63;101580.59;5022126;28;19917;-56
2022/08/25 00:04:54;;;;;;;;;;;;;;;22.47;63.99;101574.59;5025779;28;20365;-56
2022/08/25 00:07:19;;;;;;;;;;;;;;;22.47;63.93;101576.47;5026712;28;20022;-57
2022/08/25 00:09:45;;;;;;;;;;;;;;;22.40;64.16;101568.47;5027567;28;19913;-57
2022/08/25 00:12:11;;;;;;;;;;;;;;;22.41;63.91;101575.53;5024113;28;19995;-57
2022/08/25 00:14:37;;;;;;;;;;;;;;;22.38;64.37;101575.97;5026642;28;19917;-57
2022/08/25 00:17:03;;;;;;;;;;;;;;;22.34;64.20;101572.09;5023833;28;19958;-57
2022/08/25 00:19:30;;;;;;;;;;;;;;;22.30;64.06;101562.78;5029266;28;20378;-56
2022/08/25 00:21:56;;;;;;;;;;;;;;;22.27;64.00;101571.38;5024214;28;20003;-57
2022/08/25 00:24:21;;;;;;;;;;;;;;;22.24;64.38;101577.22;5024507;28;19921;-57
2022/08/25 00:26:48;;;;;;;;;;;;;;;22.20;64.40;101568.72;5024045;28;20553;-56
2022/08/25 00:29:13;;;;;;;;;;;;;;;22.19;64.01;101582.50;5027258;28;19917;-57
2022/08/25 00:31:38;;;;;;;;;;;;;;;22.17;64.34;101573.78;5024349;28;19979;-57
2022/08/25 00:34:06;;;;;;;;;;;;;;;22.14;64.54;101572.38;5021576;28;19917;-56
2022/08/25 00:36:31;;;;;;;;;;;;;;;22.13;64.72;101580.72;5023194;28;19994;-57
2022/08/25 00:38:56;;;;;;;;;;;;;;;22.10;64.73;101575.75;5027237;28;20427;-57
2022/08/25 00:41:23;;;;;;;;;;;;;;;22.03;65.32;101572.28;5023498;28;19921;-57
2022/08/25 00:43:58;;;;;;;;;;;;;;;21.94;65.14;101577.16;5023561;28;19959;-57
2022/08/25 00:46:28;;;;;;;;;;;;;;;21.90;64.72;101573.28;5025078;28;19919;-57
2022/08/25 00:49:20;;;;;;;;;;;;;;;21.90;64.74;101568.69;5026296;28;19913;-57
2022/08/25 00:51:48;;;;;;;;;;;;;;;21.90;65.30;101568.69;4999328;28;19944;-57
2022/08/25 00:54:19;;;;;;;;;;;;;;;21.89;65.77;101569.75;5025743;28;20297;-57
2022/08/25 00:56:44;;;;;;;;;;;;;;;21.86;65.87;101569.38;5022927;28;19920;-58
2022/08/25 00:59:10;;;;;;;;;;;;;;;21.82;65.58;101573.59;5023413;28;19935;-54
2022/08/25 01:01:35;;;;;;;;;;;;;;;21.77;65.65;101571.56;5022555;28;20407;-58
2022/08/25 01:04:01;;;;;;;;;;;;;;;21.74;65.83;101579.31;5024226;28;20265;-55
2022/08/25 01:06:28;;;;;;;;;;;;;;;21.71;66.13;101568.97;5022412;28;19917;-57
2022/08/25 01:08:54;;;;;;;;;;;;;;;21.71;66.24;101569.78;5022340;28;19913;-57
2022/08/25 01:11:19;;;;;;;;;;;;;;;21.70;66.06;101567.31;5024894;28;19935;-57
2022/08/25 01:13:47;;;;;;;;;;;;;;;21.70;65.98;101564.59;5023383;28;19915;-56
2022/08/25 01:16:13;;;;;;;;;;;;;;;21.69;66.39;101562.97;5025374;28;20196;-58
2022/08/25 01:18:59;;;;;;;;;;;;;;;21.68;66.23;101570.22;5026832;28;19917;-57
2022/08/25 01:21:25;;;;;;;;;;;;;;;21.64;66.56;101575.25;5025956;28;19928;-57
2022/08/25 01:23:51;;;;;;;;;;;;;;;21.61;66.43;101569.47;5025544;28;19920;-58
2022/08/25 01:26:18;;;;;;;;;;;;;;;21.58;66.75;101570.75;5025340;28;20007;-57
2022/08/25 01:31:29;;;;;;;;;;;;;;;21.53;67.61;101572.47;5025645;28;20002;-57
2022/08/25 01:33:55;;;;;;;;;;;;;;;21.53;67.62;101575.19;5021571;28;19948;-57
2022/08/25 01:36:21;;;;;;;;;;;;;;;21.52;67.92;101577.06;5024873;28;19913;-57
2022/08/25 01:38:46;;;;;;;;;;;;;;;21.49;68.08;101571.28;5023714;28;19966;-58
2022/08/25 01:41:11;;;;;;;;;;;;;;;21.48;68.28;101578.56;5030058;28;20656;-57
2022/08/25 01:43:37;;;;;;;;;;;;;;;21.46;68.23;101571.75;5036800;28;19952;-57
2022/08/25 01:46:02;;;;;;;;;;;;;;;21.45;68.44;101570.09;5028777;28;20004;-57
2022/08/25 01:48:28;;;;;;;;;;;;;;;21.43;68.45;101564.09;5033751;28;20277;-57
2022/08/25 01:50:53;;;;;;;;;;;;;;;21.42;68.57;101559.72;5048876;28;19909;-57
2022/08/25 01:53:21;;;;;;;;;;;;;;;21.42;68.45;101570.53;5032279;28;19913;-57
2022/08/25 01:56:00;;;;;;;;;;;;;;;21.45;67.83;101570.09;5032403;28;19916;-58
2022/08/25 01:58:30;;;;;;;;;;;;;;;21.48;68.01;101566.94;5030037;28;19908;-57
2022/08/25 02:00:56;;;;;;;;;;;;;;;21.50;68.03;101567.53;5026008;28;20035;-59
2022/08/25 02:03:23;;;;;;;;;;;;;;;21.48;67.98;101567.75;5022848;28;20602;-58
2022/08/25 02:05:49;;;;;;;;;;;;;;;21.48;67.78;101567.75;5022192;28;19920;-58
2022/08/25 02:08:14;;;;;;;;;;;;;;;21.51;67.47;101569.19;5024306;28;19943;-58
2022/08/25 02:10:39;;;;;;;;;;;;;;;21.52;67.08;101573.53;5026667;28;19959;-57
2022/08/25 02:13:05;;;;;;;;;;;;;;;21.52;66.88;101565.44;5020754;28;19924;-58
2022/08/25 02:15:30;;;;;;;;;;;;;;;21.54;66.78;101563.31;5026831;28;19912;-57
2022/08/25 02:17:56;;;;;;;;;;;;;;;21.53;66.52;101567.06;5034104;28;20334;-58
2022/08/25 02:20:22;;;;;;;;;;;;;;;21.48;66.38;101564.22;5037886;28;19924;-58
2022/08/25 02:22:48;;;;;;;;;;;;;;;21.45;66.22;101570.91;5037424;28;19946;-58
2022/08/25 02:25:14;;;;;;;;;;;;;;;21.44;66.22;101568.44;5028118;28;19917;-58
2022/08/25 02:27:39;;;;;;;;;;;;;;;21.44;66.50;101568.44;5031013;28;19936;-58
2022/08/25 02:30:05;;;;;;;;;;;;;;;21.43;66.24;101569.50;5033433;28;20395;-58
2022/08/25 02:32:30;;;;;;;;;;;;;;;21.39;66.57;101560.97;5043184;28;19909;-58
2022/08/25 02:34:55;;;;;;;;;;;;;;;21.33;66.17;101561.88;5033322;28;19909;-58
2022/08/25 02:37:20;;;;;;;;;;;;;;;21.23;66.29;101562.41;5028209;28;19920;-58
2022/08/25 02:39:46;;;;;;;;;;;;;;;21.20;66.26;101557.41;5032511;28;19909;-58
2022/08/25 02:42:11;;;;;;;;;;;;;;;21.17;66.19;101552.47;5028510;28;19932;-58
2022/08/25 02:44:36;;;;;;;;;;;;;;;21.15;66.29;101553.75;5023173;28;19917;-58
2022/08/25 02:47:02;;;;;;;;;;;;;;;21.14;66.19;101555.63;5022119;28;19909;-58
2022/08/25 02:49:27;;;;;;;;;;;;;;;21.11;65.91;101555.25;5023861;28;20361;-58
2022/08/25 02:51:53;;;;;;;;;;;;;;;21.09;66.16;101560.84;5022271;28;19919;-58
2022/08/25 02:54:18;;;;;;;;;;;;;;;21.07;65.88;101557.53;5027036;28;19913;-57
2022/08/25 02:56:43;;;;;;;;;;;;;;;21.06;66.18;101553.19;5025282;28;19913;-58
2022/08/25 02:59:09;;;;;;;;;;;;;;;21.03;66.17;101550.94;5023096;28;20480;-58
2022/08/25 03:01:34;;;;;;;;;;;;;;;21.01;65.94;101551.16;5021649;28;19920;-58
2022/08/25 03:04:00;;;;;;;;;;;;;;;21.01;65.91;101547.63;5020577;28;19959;-58
2022/08/25 03:06:26;;;;;;;;;;;;;;;21.01;65.71;101547.63;5022379;28;19923;-58
2022/08/25 03:08:52;;;;;;;;;;;;;;;21.01;65.64;101548.44;5022815;28;20465;-58
2022/08/25 03:11:17;;;;;;;;;;;;;;;20.99;65.60;101544.31;5026258;28;19927;-58
2022/08/25 03:13:43;;;;;;;;;;;;;;;20.94;65.39;101546.88;5023806;28;19921;-58
2022/08/25 03:16:09;;;;;;;;;;;;;;;20.90;64.99;101538.38;5024197;28;20902;-56
2022/08/25 03:18:34;;;;;;;;;;;;;;;20.88;65.16;101535.09;5025340;28;19975;-57
2022/08/25 03:20:59;;;;;;;;;;;;;;;20.87;65.25;101529.91;5021306;28;20380;-57
2022/08/25 03:23:25;;;;;;;;;;;;;;;20.89;65.08;101541.31;5022592;28;19917;-58
2022/08/25 03:28:36;;;;;;;;;;;;;;;20.90;64.50;101529.47;5022840;28;20398;-58
2022/08/25 03:31:01;;;;;;;;;;;;;;;20.90;64.16;101524.06;5023777;28;19948;-58
2022/08/25 03:33:27;;;;;;;;;;;;;;;20.89;64.13;101530.50;5024775;28;19917;-58
2022/08/25 03:35:54;;;;;;;;;;;;;;;20.88;64.18;101523.47;5023912;28;20562;-58
2022/08/25 03:38:19;;;;;;;;;;;;;;;20.88;64.06;101526.16;5021335;28;19999;-58
2022/08/25 03:40:44;;;;;;;;;;;;;;;20.88;63.94;101526.16;5033877;28;19920;-58
2022/08/25 03:43:09;;;;;;;;;;;;;;;20.86;63.76;101520.16;5028766;28;19940;-58
2022/08/25 03:45:38;;;;;;;;;;;;;;;20.86;63.46;101523.69;5029091;28;19976;-56
2022/08/25 03:48:03;;;;;;;;;;;;;;;20.86;63.53;101518.28;5038255;28;20011;-58
2022/08/25 03:50:29;;;;;;;;;;;;;;;20.86;63.42;101522.84;5041674;28;20367;-58
2022/08/25 03:52:55;;;;;;;;;;;;;;;20.84;63.00;101514.16;5037718;28;19971;-58
2022/08/25 03:55:21;;;;;;;;;;;;;;;20.82;62.92;101517.06;5034329;28;19935;-58
2022/08/25 03:57:47;;;;;;;;;;;;;;;20.80;62.83;101512.91;5046905;28;19967;-58
2022/08/25 04:00:12;;;;;;;;;;;;;;;20.79;62.55;101506.69;5046708;28;19940;-58
2022/08/25 04:02:38;;;;;;;;;;;;;;;20.79;62.67;101511.28;5033967;28;20375;-58
2022/08/25 04:05:04;;;;;;;;;;;;;;;20.78;62.52;101512.31;5041572;28;19908;-58
2022/08/25 04:07:29;;;;;;;;;;;;;;;20.77;62.49;101507.97;5025214;28;19913;-58
2022/08/25 04:09:55;;;;;;;;;;;;;;;20.76;62.32;101499.03;5027080;28;19913;-58
2022/08/25 04:12:20;;;;;;;;;;;;;;;20.75;62.15;101499.28;5024181;28;19967;-58
2022/08/25 04:14:46;;;;;;;;;;;;;;;20.73;62.08;101492.22;5026135;28;19917;-58
2022/08/25 04:17:11;;;;;;;;;;;;;;;20.71;62.12;101494.31;5022999;28;19921;-58
2022/08/25 04:19:37;;;;;;;;;;;;;;;20.70;62.00;101499.94;5022643;28;19913;-58
2022/08/25 04:22:02;;;;;;;;;;;;;;;20.68;61.80;101494.75;5022202;28;20406;-58
2022/08/25 04:24:27;;;;;;;;;;;;;;;20.65;61.48;101494.38;5020716;28;20361;-57
2022/08/25 04:26:53;;;;;;;;;;;;;;;20.63;61.32;101499.19;5021673;28;19917;-58
2022/08/25 04:29:20;;;;;;;;;;;;;;;20.60;61.34;101495.03;5028810;28;20068;-58
2022/08/25 04:31:46;;;;;;;;;;;;;;;20.59;61.01;101493.41;5020547;28;19921;-56
2022/08/25 04:34:12;;;;;;;;;;;;;;;20.57;60.98;101492.78;5017945;28;19917;-58
2022/08/25 04:36:37;;;;;;;;;;;;;;;20.58;60.62;101488.22;5027983;28;20035;-58
2022/08/25 04:39:02;;;;;;;;;;;;;;;20.57;60.77;101487.41;5035793;28;19924;-57
2022/08/25 04:41:29;;;;;;;;;;;;;;;20.57;60.42;101483.88;5031606;28;20561;-56
2022/08/25 04:43:57;;;;;;;;;;;;;;;20.56;60.65;101490.31;5024259;28;19956;-57
2022/08/25 04:46:23;;;;;;;;;;;;;;;20.55;60.48;101489.50;5028162;28;19921;-58
2022/08/25 04:48:49;;;;;;;;;;;;;;;20.53;60.17;101483.50;5036514;28;20375;-57
2022/08/25 04:51:17;;;;;;;;;;;;;;;20.54;59.90;101490.53;5041806;28;20048;-57
2022/08/25 04:53:43;;;;;;;;;;;;;;;20.54;60.05;101487.84;5036732;28;20327;-57
2022/08/25 04:56:10;;;;;;;;;;;;;;;20.54;60.18;101482.44;5035491;28;20415;-57
2022/08/25 04:58:36;;;;;;;;;;;;;;;20.53;60.00;101474.53;5042004;28;19909;-58
2022/08/25 05:01:16;;;;;;;;;;;;;;;20.53;59.85;101480.78;5033788;28;20024;-57
2022/08/25 05:03:41;;;;;;;;;;;;;;;20.52;59.45;101479.09;5035578;28;19932;-58
2022/08/25 05:06:07;;;;;;;;;;;;;;;20.55;59.67;101478.69;5041731;28;19912;-58
2022/08/25 05:08:32;;;;;;;;;;;;;;;20.56;59.76;101485.75;5032076;28;19936;-58
2022/08/25 05:10:58;;;;;;;;;;;;;;;20.58;59.65;101497.16;5037806;28;19908;-58
2022/08/25 05:13:24;;;;;;;;;;;;;;;20.60;59.39;101499.63;5031855;28;20047;-58
2022/08/25 05:15:56;;;;;;;;;;;;;;;20.62;59.64;101495.66;5039753;28;19915;-58
2022/08/25 05:18:23;;;;;;;;;;;;;;;20.64;59.58;101500.81;5030264;28;19921;-58
2022/08/25 05:20:48;;;;;;;;;;;;;;;20.64;59.14;101504.34;5041226;28;19909;-58
2022/08/25 05:23:14;;;;;;;;;;;;;;;20.66;59.12;101510.34;5033223;28;19917;-58
2022/08/25 05:25:41;;;;;;;;;;;;;;;20.68;59.25;101510.97;5034549;28;19927;-58
2022/08/25 05:28:06;;;;;;;;;;;;;;;20.70;59.00;101514.25;5036350;28;19999;-58
2022/08/25 05:30:31;;;;;;;;;;;;;;;20.72;58.68;101514.88;5036041;28;19996;-58
2022/08/25 05:32:56;;;;;;;;;;;;;;;20.78;59.06;101515.84;5033783;28;20338;-57
2022/08/25 05:35:21;;;;;;;;;;;;;;;20.82;58.81;101517.06;5028462;28;19959;-58
2022/08/25 05:37:46;;;;;;;;;;;;;;;20.86;58.51;101520.16;5037807;28;19915;-58
2022/08/25 05:40:12;;;;;;;;;;;;;;;20.92;58.55;101519.25;5033653;28;19921;-58
2022/08/25 05:42:37;;;;;;;;;;;;;;;20.95;58.28;101524.22;5034005;28;20069;-58
2022/08/25 05:45:03;;;;;;;;;;;;;;;20.98;58.24;101526.47;5043990;28;20265;-58
2022/08/25 05:47:28;;;;;;;;;;;;;;;20.98;58.49;101527.28;5029769;28;19913;-57
2022/08/25 05:49:53;;;;;;;;;;;;;;;20.99;57.98;101522.72;5034288;28;19909;-58
2022/08/25 05:52:19;;;;;;;;;;;;;;;21.01;58.17;101526.03;5027042;28;19925;-58
2022/08/25 05:54:44;;;;;;;;;;;;;;;21.03;58.39;101534.72;5034860;28;20427;-58
2022/08/25 05:57:09;;;;;;;;;;;;;;;21.05;58.10;101532.63;5041962;28;19909;-58
2022/08/25 05:59:34;;;;;;;;;;;;;;;21.07;58.31;101530.53;5039624;28;20447;-58
2022/08/25 06:04:43;;;;;;;;;;;;;;;21.15;58.42;101524.84;5022258;28;19959;-58
2022/08/25 06:07:09;;;;;;;;;;;;;;;21.19;58.21;101534.16;5038716;28;19955;-59
2022/08/25 06:09:36;;;;;;;;;;;;;;;21.23;57.78;101532.69;5040330;28;19943;-58
2022/08/25 06:12:01;;;;;;;;;;;;;;;21.24;57.96;101533.50;5044797;28;19941;-57
2022/08/25 06:14:26;;;;;;;;;;;;;;;21.26;57.57;101542.22;5031063;28;20378;-57
2022/08/25 06:16:52;;;;;;;;;;;;;;;21.32;57.48;101534.03;5028673;28;19916;-57
2022/08/25 06:19:17;;;;;;;;;;;;;;;21.39;57.58;101533.13;5038514;28;19909;-58
2022/08/25 06:21:42;;;;;;;;;;;;;;;21.44;57.50;101523.31;5036072;28;19917;-58
2022/08/25 06:24:10;;;;;;;;;;;;;;;21.48;57.49;101526.41;5034858;28;19908;-58
2022/08/25 06:26:36;;;;;;;;;;;;;;;21.54;57.35;101528.19;5027232;28;20284;-57
2022/08/25 06:29:01;;;;;;;;;;;;;;;21.61;57.17;101528.91;5031311;28;20490;-57
2022/08/25 06:31:26;;;;;;;;;;;;;;;21.68;57.15;101531.53;5035386;28;19913;-56
2022/08/25 06:33:51;;;;;;;;;;;;;;;21.74;57.15;101527.94;5038899;28;20007;-57
2022/08/25 06:36:18;;;;;;;;;;;;;;;21.81;56.83;101534.09;5038886;28;19920;-58
2022/08/25 06:38:43;;;;;;;;;;;;;;;21.87;56.60;101525.06;5028355;28;19953;-58
2022/08/25 06:41:11;;;;;;;;;;;;;;;21.95;56.49;101538.25;5019739;28;19951;-57
2022/08/25 06:43:37;;;;;;;;;;;;;;;22.01;56.59;101537.38;5036659;28;19919;-57
2022/08/25 06:46:09;;;;;;;;;;;;;;;22.05;56.41;101532.34;5028993;28;19913;-58
2022/08/25 06:48:35;;;;;;;;;;;;;;;22.11;56.22;101528.72;5027378;28;19912;-57
2022/08/25 06:51:04;;;;;;;;;;;;;;;22.18;55.98;101532.16;5028574;28;20436;-57
2022/08/25 06:53:29;;;;;;;;;;;;;;;22.22;55.73;101531.44;5036291;28;19909;-58
2022/08/25 06:55:55;;;;;;;;;;;;;;;22.29;55.56;101528.66;5036523;28;19955;-57
2022/08/25 06:58:20;;;;;;;;;;;;;;;22.33;55.49;101524.44;5040438;28;19909;-58
2022/08/25 07:00:45;;;;;;;;;;;;;;;22.38;55.36;101524.56;5038244;28;20003;-58
2022/08/25 07:03:10;;;;;;;;;;;;;;;22.43;55.06;101523.84;5025973;28;19920;-58
2022/08/25 07:05:36;;;;;;;;;;;;;;;22.46;55.24;101521.50;5033970;28;19927;-58
2022/08/25 07:08:01;;;;;;;;;;;;;;;22.52;55.06;101522.44;5044271;28;19912;-57
2022/08/25 07:10:26;;;;;;;;;;;;;;;22.54;55.16;101526.56;5039173;28;20554;-57
2022/08/25 07:12:51;;;;;;;;;;;;;;;22.59;55.05;101523.19;5035421;28;20011;-57
2022/08/25 07:15:17;;;;;;;;;;;;;;;22.65;54.70;101524.13;5032144;28;19929;-59
2022/08/25 07:17:43;;;;;;;;;;;;;;;22.70;54.87;101521.53;5012342;28;19935;-58
2022/08/25 07:20:08;;;;;;;;;;;;;;;22.75;54.52;101516.25;5025987;28;20008;-58
2022/08/25 07:22:33;;;;;;;;;;;;;;;22.80;54.83;101513.66;5036753;28;19913;-58
2022/08/25 07:24:58;;;;;;;;;;;;;;;22.88;54.70;101520.66;5038231;28;19917;-58
2022/08/25 07:27:25;;;;;;;;;;;;;;;22.96;54.67;101521.13;5030812;28;19960;-58
2022/08/25 07:29:52;;;;;;;;;;;;;;;23.02;54.51;101522.06;5026256;28;19940;-58
2022/08/25 07:32:17;;;;;;;;;;;;;;;23.09;54.73;101526.28;5033427;28;20366;-58
2022/08/25 07:37:27;;;;;;;;;;;;;;;23.25;53.98;101529.34;5030950;28;19979;-57
2022/08/25 07:39:52;;;;;;;;;;;;;;;23.33;54.27;101523.53;5043158;28;19916;-58
2022/08/25 07:42:17;;;;;;;;;;;;;;;23.39;53.82;101515.28;5037899;28;20404;-58
2022/08/25 07:44:42;;;;;;;;;;;;;;;23.45;53.87;101517.06;5043610;28;19913;-58
2022/08/25 07:47:08;;;;;;;;;;;;;;;23.49;53.87;101518.22;5037051;28;19952;-58
2022/08/25 07:49:33;;;;;;;;;;;;;;;23.57;53.93;101519.75;5042622;28;20350;-58
2022/08/25 07:51:58;;;;;;;;;;;;;;;23.66;53.93;101517.47;5025976;28;20479;-58
2022/08/25 07:54:26;;;;;;;;;;;;;;;23.72;53.77;101516.53;5031919;28;19916;-58
2022/08/25 07:56:51;;;;;;;;;;;;;;;23.77;53.56;101509.31;5047787;28;19908;-58
2022/08/25 07:59:16;;;;;;;;;;;;;;;23.84;53.38;101513.78;5032180;28;19913;-57
2022/08/25 08:01:41;;;;;;;;;;;;;;;23.90;53.25;101519.03;5034078;28;19931;-58
2022/08/25 08:04:06;;;;;;;;;;;;;;;23.94;53.20;101509.34;5035614;28;19962;-58
2022/08/25 08:06:32;;;;;;;;;;;;;;;24.00;52.96;101519.25;5029372;28;19921;-59
2022/08/25 08:08:58;;;;;;;;;;;;;;;24.07;53.09;101516.38;5029949;28;19909;-58
2022/08/25 08:11:35;;;;;;;;;;;;;;;24.12;52.81;101515.66;5039794;28;19909;-58
2022/08/25 08:14:01;;;;;;;;;;;;;;;24.17;52.82;101503.00;5032707;28;19912;-58
2022/08/25 08:16:28;;;;;;;;;;;;;;;24.25;52.45;101501.75;5035360;28;19916;-57
2022/08/25 08:18:53;;;;;;;;;;;;;;;24.30;52.44;101501.91;5030976;28;19924;-57
2022/08/25 08:21:21;;;;;;;;;;;;;;;24.38;52.63;101499.59;5029532;28;20007;-58
2022/08/25 08:23:47;;;;;;;;;;;;;;;24.46;52.54;101494.81;5042216;28;19912;-58
2022/08/25 08:26:12;;;;;;;;;;;;;;;24.55;51.63;101501.47;5035326;28;19913;-58
2022/08/25 08:28:37;;;;;;;;;;;;;;;24.61;51.28;101509.47;5024841;28;19921;-57
2022/08/25 08:31:03;;;;;;;;;;;;;;;24.69;51.26;101513.66;5038619;28;20292;-59
2022/08/25 08:33:28;;;;;;;;;;;;;;;24.79;51.14;101507.56;5044194;28;19908;-58
2022/08/25 08:36:04;;;;;;;;;;;;;;;24.87;50.99;101513.41;5027741;28;19913;-58
2022/08/25 08:38:30;;;;;;;;;;;;;;;24.96;50.60;101497.50;5028584;28;19919;-59
2022/08/25 08:43:50;;;;;;;;;;;;;;;25.16;50.24;101497.00;5037727;28;19943;-56
2022/08/25 08:46:16;;;;;;;;;;;;;;;25.25;50.05;101498.19;5042898;28;19909;-58
2022/08/25 08:48:48;;;;;;;;;;;;;;;25.33;49.85;101501.28;5041545;28;19908;-58
2022/08/25 08:51:18;;;;;;;;;;;;;;;25.44;49.66;101504.94;5033883;28;19913;-58
2022/08/25 08:53:47;;;;;;;;;;;;;;;25.54;49.87;101498.81;5035754;28;19924;-58
2022/08/25 08:56:19;;;;;;;;;;;;;;;25.62;48.85;101498.38;5041683;28;19920;-59
2022/08/25 08:59:04;;;;;;;;;;;;;;;25.71;49.33;101493.31;5038905;28;19962;-58
2022/08/25 09:01:32;;;;;;;;;;;;;;;25.81;49.34;101491.53;5028126;28;19921;-58
2022/08/25 09:03:58;;;;;;;;;;;;;;;25.92;49.29;101497.91;5029219;28;20339;-58
2022/08/25 09:06:26;;;;;;;;;;;;;;;26.02;48.74;101492.59;5029504;28;20557;-57
2022/08/25 09:08:54;;;;;;;;;;;;;;;26.15;48.34;101489.44;5033614;28;19916;-58
2022/08/25 09:11:22;;;;;;;;;;;;;;;26.27;47.81;101491.16;5025270;28;20403;-58
2022/08/25 09:13:53;;;;;;;;;;;;;;;26.40;47.89;101490.75;5024776;28;20074;-58
2022/08/25 09:19:37;;;;;;;;;;;;;;;26.67;47.77;101499.69;5017800;28;19964;-58
2022/08/25 09:22:13;;;;;;;;;;;;;;;26.82;48.06;101497.06;5024464;28;19924;-58
2022/08/25 09:24:49;;;;;;;;;;;;;;;27.02;47.81;101496.38;5022026;28;19971;-59
2022/08/25 09:27:27;;;;;;;;;;;;;;;27.19;47.53;101496.22;5029861;28;19913;-58
2022/08/25 09:29:52;;;;;;;;;;;;;;;27.38;47.33;101499.28;5025169;28;20008;-58
2022/08/25 09:32:17;;;;;;;;;;;;;;;27.55;47.10;101496.34;5028699;28;20004;-58
2022/08/25 09:34:43;;;;;;;;;;;;;;;27.69;46.73;101489.31;5026469;28;19916;-58
2022/08/25 09:37:08;;;;;;;;;;;;;;;27.87;46.79;101490.75;5025398;28;19913;-59
2022/08/25 09:39:35;;;;;;;;;;;;;;;28.03;45.96;101493.22;5026191;28;20372;-57
2022/08/25 09:42:00;;;;;;;;;;;;;;;28.20;45.63;101494.88;5024717;28;20311;-58
2022/08/25 09:44:31;;;;;;;;;;;;;;;28.35;45.67;101484.00;5041844;28;19916;-58
2022/08/25 09:47:00;;;;;;;;;;;;;;;28.53;44.89;101485.34;5026895;28;19963;-58
2022/08/25 09:49:37;;;;;;;;;;;;;;;28.66;43.85;101488.34;5025965;28;19963;-59
2022/08/25 09:52:17;;;;;;;;;;;;;;;28.82;43.44;101489.09;5024061;28;19913;-58
2022/08/25 09:54:42;;;;;;;;;;;;;;;28.96;42.61;101487.47;5024258;28;19913;-59
2022/08/25 09:57:10;;;;;;;;;;;;;;;29.09;42.48;101483.31;5031731;28;20422;-58
2022/08/25 09:59:36;;;;;;;;;;;;;;;29.24;41.84;101477.00;5029380;28;19913;-58
2022/08/25 10:02:20;;;;;;;;;;;;;;;29.36;41.55;101472.00;5023171;28;19932;-58
2022/08/25 10:04:45;;;;;;;;;;;;;;;29.54;41.15;101467.84;5025401;28;19920;-58
2022/08/25 10:07:29;;;;;;;;;;;;;;;29.65;41.00;101463.94;5026120;28;19913;-59
2022/08/25 10:09:55;;;;;;;;;;;;;;;29.76;41.47;101457.28;5020663;28;20000;-59
2022/08/25 10:12:40;;;;;;;;;;;;;;;29.89;40.47;101450.38;5021648;28;20009;-59
2022/08/25 10:15:24;;;;;;;;;;;;;;;30.04;39.32;101447.53;5026173;28;19966;-58
2022/08/25 10:17:49;;;;;;;;;;;;;;;30.14;37.86;101450.22;5036271;28;19916;-59
2022/08/25 10:20:27;;;;;;;;;;;;;;;30.21;37.84;101449.88;5037702;28;19958;-59
2022/08/25 10:23:07;;;;;;;;;;;;;;;30.27;38.23;101448.72;5034475;28;20411;-59
2022/08/25 10:25:32;;;;;;;;;;;;;;;30.35;37.14;101447.25;5043692;28;19958;-58
2022/08/25 10:27:57;;;;;;;;;;;;;;;30.44;36.44;101440.06;5047714;28;19940;-59
2022/08/25 10:30:30;;;;;;;;;;;;;;;30.56;36.51;101439.66;5034361;28;19960;-58
2022/08/25 10:33:01;;;;;;;;;;;;;;;30.62;36.89;101436.59;5029515;28;20376;-59
2022/08/25 10:35:33;;;;;;;;;;;;;;;30.57;36.92;101430.34;5043941;28;19920;-59
2022/08/25 10:38:03;;;;;;;;;;;;;;;30.56;36.63;101429.50;5035654;28;19925;-59
2022/08/25 10:40:46;;;;;;;;;;;;;;;30.60;37.08;101425.13;5045164;28;19958;-59
2022/08/25 10:43:22;;;;;;;;;;;;;;;30.63;36.42;101415.50;5031543;28;19959;-59
2022/08/25 10:45:50;;;;;;;;;;;;;;;30.65;36.70;101416.00;5032049;28;19916;-58
2022/08/25 10:48:34;;;;;;;;;;;;;;;30.67;37.14;101424.78;5039678;28;19921;-59
2022/08/25 10:51:23;;;;;;;;;;;;;;;30.62;36.13;101408.38;5024686;28;19913;-58
2022/08/25 10:54:04;;;;;;;;;;;;;;;30.66;36.63;101406.72;5025044;28;19908;-59
2022/08/25 10:56:34;;;;;;;;;;;;;;;30.77;36.57;101406.28;5039613;28;19909;-59
2022/08/25 10:59:08;;;;;;;;;;;;;;;30.78;36.35;101396.94;5042117;28;20003;-59
2022/08/25 11:01:33;;;;;;;;;;;;;;;30.74;36.33;101395.09;5042672;28;20375;-59
2022/08/25 11:04:09;;;;;;;;;;;;;;;30.72;36.06;101389.91;5035050;28;19916;-59
2022/08/25 11:06:40;;;;;;;;;;;;;;;30.64;35.17;101392.44;5030746;28;19912;-58
2022/08/25 11:09:09;;;;;;;;;;;;;;;30.56;34.83;101393.88;5046073;28;19954;-59
2022/08/25 11:11:38;;;;;;;;;;;;;;;30.53;35.42;101392.53;5041848;28;19908;-58
2022/08/25 11:14:06;;;;;;;;;;;;;;;30.56;36.14;101391.13;5043706;28;20287;-59
2022/08/25 11:16:31;;;;;;;;;;;;;;;30.53;35.70;101392.53;5037892;28;20055;-59
2022/08/25 11:19:00;;;;;;;;;;;;;;;30.57;36.08;101386.47;5033060;28;19996;-59
2022/08/25 11:21:34;;;;;;;;;;;;;;;30.65;36.46;101380.38;5034880;28;19932;-59
2022/08/25 11:24:08;;;;;;;;;;;;;;;30.76;36.71;101379.16;5031169;28;19917;-59
2022/08/25 11:26:35;;;;;;;;;;;;;;;30.86;37.30;101380.94;5041881;28;19970;-58
2022/08/25 11:29:07;;;;;;;;;;;;;;;30.87;36.18;101377.09;5047385;28;19954;-59
2022/08/25 11:31:37;;;;;;;;;;;;;;;30.85;35.42;101377.38;5040204;28;20293;-59
2022/08/25 11:34:02;;;;;;;;;;;;;;;30.85;35.29;101366.41;5040092;28;20292;-59
2022/08/25 11:36:29;;;;;;;;;;;;;;;30.91;34.47;101373.47;5038528;28;19913;-59
2022/08/25 11:38:57;;;;;;;;;;;;;;;30.99;34.38;101372.00;5043682;28;19940;-59
2022/08/25 11:41:25;;;;;;;;;;;;;;;31.07;34.20;101371.34;5040118;28;19949;-59
2022/08/25 11:44:00;;;;;;;;;;;;;;;31.16;33.91;101369.59;5028303;28;19917;-58
2022/08/25 11:46:41;;;;;;;;;;;;;;;31.23;34.33;101363.75;5028414;28;19967;-59
2022/08/25 11:49:15;;;;;;;;;;;;;;;31.31;34.35;101361.16;5023794;28;19913;-58
2022/08/25 11:51:42;;;;;;;;;;;;;;;31.39;34.23;101368.72;5029896;28;20454;-58
2022/08/25 11:54:15;;;;;;;;;;;;;;;31.39;34.03;101365.97;5023685;28;20004;-58
2022/08/25 11:56:40;;;;;;;;;;;;;;;31.38;33.44;101369.03;5024303;28;19979;-59
2022/08/25 11:59:06;;;;;;;;;;;;;;;31.42;34.93;101367.31;5030060;28;19913;-59
2022/08/25 12:01:37;;;;;;;;;;;;;;;31.34;32.84;101370.72;5029331;28;19924;-59
2022/08/25 12:04:13;;;;;;;;;;;;;;;31.35;32.51;101364.13;5028412;28;19921;-59
2022/08/25 12:06:57;;;;;;;;;;;;;;;31.35;33.37;101356.72;5039686;28;19964;-58
2022/08/25 12:09:22;;;;;;;;;;;;;;;31.36;32.78;101363.00;5029165;28;20013;-58
2022/08/25 12:11:50;;;;;;;;;;;;;;;31.45;32.42;101361.22;5030695;28;20004;-56
2022/08/25 12:14:21;;;;;;;;;;;;;;;31.52;32.64;101361.69;5032021;28;19931;-58
2022/08/25 12:16:55;;;;;;;;;;;;;;;31.56;32.66;101351.72;5018113;28;20067;-57
2022/08/25 12:19:28;;;;;;;;;;;;;;;31.60;32.24;101362.91;5033314;28;20297;-59
2022/08/25 12:21:55;;;;;;;;;;;;;;;31.67;31.90;101349.63;5027420;28;19921;-59
2022/08/25 12:24:44;;;;;;;;;;;;;;;31.72;32.02;101350.38;5029250;28;20397;-59
2022/08/25 12:27:18;;;;;;;;;;;;;;;31.76;31.82;101342.34;5018078;28;20273;-59
2022/08/25 12:30:04;;;;;;;;;;;;;;;31.78;32.21;101342.84;5020865;28;20482;-59
2022/08/25 12:32:46;;;;;;;;;;;;;;;31.80;32.47;101339.81;5023779;28;19917;-59
2022/08/25 12:35:24;;;;;;;;;;;;;;;31.82;32.37;101334.84;5028901;28;19913;-59
2022/08/25 12:37:53;;;;;;;;;;;;;;;31.85;33.14;101335.06;5036411;28;19916;-59
2022/08/25 12:40:24;;;;;;;;;;;;;;;31.85;32.21;101339.75;5036747;28;20004;-58
2022/08/25 12:42:59;;;;;;;;;;;;;;;31.88;31.46;101336.41;5034176;28;19970;-59
2022/08/25 12:45:33;;;;;;;;;;;;;;;31.92;31.69;101334.66;5033804;28;20029;-59
2022/08/25 12:48:17;;;;;;;;;;;;;;;31.97;31.74;101329.06;5029648;28;20363;-59
2022/08/25 12:50:44;;;;;;;;;;;;;;;31.99;31.54;101330.41;5041381;28;19999;-59
2022/08/25 12:53:16;;;;;;;;;;;;;;;32.03;30.96;101325.94;5043014;28;19919;-62
2022/08/25 12:55:53;;;;;;;;;;;;;;;32.05;30.59;101320.94;5034626;28;19963;-59